ETHN

Niederstetten Airport

Niederstetten, Germany
METAR ETHN 221720Z 25004KT 9999 FEW070CB BKN300 22/08 Q1013 BLU+
Observed Flight Rules
Apr-22 @ 17:20 UTC (an hour ago) Visual Flight Rules
Wind Visibility Clouds
250° at 4 knots 10,000+ meters
  • Few at 7,000' AGL
  • Broken at 30,000' AGL
Temperatures Readings
Current 22°C / 72°F
Dewpoint 8°C / 46°F
Humidity 41%
Altimeter 29.91" Hg
Pressure 1013 hPa
Elevation 473
METAR ETHN 221720Z 25004KT 9999 FEW070CB BKN300 22/08 Q1013 BLU+
Observed Flight Rules
Apr-22 @ 17:20 UTC
(an hour ago)
VFR
Wind Visibility
250° at 4 knots 10,000+ meters
Clouds
  • Few at 7,000' AGL
  • Broken at 30,000' AGL
Temperature Dewpoint
22°C / 72°F 8°C / 46°F
Humidity Altimeter Pressure
41% 29.91" Hg 1013 hPa